sensor_id;sensor_type;location;lat;lon;timestamp;P1;durP1;ratioP1;P2;durP2;ratioP2
66794;SDS011;53698;52.738;4.752;2022-07-17T00:02:23;5.18;;;2.28;;
66794;SDS011;53698;52.738;4.752;2022-07-17T00:04:48;4.13;;;2.10;;
66794;SDS011;53698;52.738;4.752;2022-07-17T00:07:13;6.47;;;2.65;;
66794;SDS011;53698;52.738;4.752;2022-07-17T00:09:39;4.95;;;2.60;;
66794;SDS011;53698;52.738;4.752;2022-07-17T00:12:04;3.72;;;2.47;;
66794;SDS011;53698;52.738;4.752;2022-07-17T00:14:30;7.97;;;2.92;;
66794;SDS011;53698;52.738;4.752;2022-07-17T00:16:55;6.85;;;3.17;;
66794;SDS011;53698;52.738;4.752;2022-07-17T00:19:23;6.75;;;2.78;;
66794;SDS011;53698;52.738;4.752;2022-07-17T00:21:48;6.13;;;2.65;;
66794;SDS011;53698;52.738;4.752;2022-07-17T00:24:15;6.45;;;2.85;;
66794;SDS011;53698;52.738;4.752;2022-07-17T00:26:45;5.18;;;3.00;;
66794;SDS011;53698;52.738;4.752;2022-07-17T00:29:12;6.18;;;2.67;;
66794;SDS011;53698;52.738;4.752;2022-07-17T00:31:37;7.95;;;2.90;;
66794;SDS011;53698;52.738;4.752;2022-07-17T00:34:03;4.70;;;2.65;;
66794;SDS011;53698;52.738;4.752;2022-07-17T00:36:28;6.95;;;2.78;;
66794;SDS011;53698;52.738;4.752;2022-07-17T00:38:54;7.57;;;2.90;;
66794;SDS011;53698;52.738;4.752;2022-07-17T00:41:19;7.05;;;3.22;;
66794;SDS011;53698;52.738;4.752;2022-07-17T00:43:44;6.78;;;3.22;;
66794;SDS011;53698;52.738;4.752;2022-07-17T00:46:10;6.35;;;3.53;;
66794;SDS011;53698;52.738;4.752;2022-07-17T00:48:36;7.53;;;3.72;;
66794;SDS011;53698;52.738;4.752;2022-07-17T00:51:01;8.50;;;3.70;;
66794;SDS011;53698;52.738;4.752;2022-07-17T00:53:27;6.50;;;3.80;;
66794;SDS011;53698;52.738;4.752;2022-07-17T00:55:56;6.35;;;4.00;;
66794;SDS011;53698;52.738;4.752;2022-07-17T00:58:24;9.68;;;3.45;;
66794;SDS011;53698;52.738;4.752;2022-07-17T01:00:51;6.00;;;3.83;;
66794;SDS011;53698;52.738;4.752;2022-07-17T01:03:21;7.28;;;3.50;;
66794;SDS011;53698;52.738;4.752;2022-07-17T01:05:47;10.05;;;3.30;;
66794;SDS011;53698;52.738;4.752;2022-07-17T01:08:13;6.57;;;3.00;;
66794;SDS011;53698;52.738;4.752;2022-07-17T01:10:39;10.02;;;3.25;;
66794;SDS011;53698;52.738;4.752;2022-07-17T01:13:05;6.65;;;2.92;;
66794;SDS011;53698;52.738;4.752;2022-07-17T01:15:32;3.60;;;2.50;;
66794;SDS011;53698;52.738;4.752;2022-07-17T01:18:03;6.25;;;2.95;;
66794;SDS011;53698;52.738;4.752;2022-07-17T01:20:29;5.80;;;3.05;;
66794;SDS011;53698;52.738;4.752;2022-07-17T01:22:55;5.65;;;3.22;;
66794;SDS011;53698;52.738;4.752;2022-07-17T01:25:21;3.47;;;2.30;;
66794;SDS011;53698;52.738;4.752;2022-07-17T01:27:47;9.63;;;2.90;;
66794;SDS011;53698;52.738;4.752;2022-07-17T01:30:13;6.05;;;3.05;;
66794;SDS011;53698;52.738;4.752;2022-07-17T01:32:39;5.72;;;3.25;;
66794;SDS011;53698;52.738;4.752;2022-07-17T01:35:06;7.30;;;2.97;;
66794;SDS011;53698;52.738;4.752;2022-07-17T01:37:32;11.10;;;3.03;;
66794;SDS011;53698;52.738;4.752;2022-07-17T01:39:58;5.05;;;2.70;;
66794;SDS011;53698;52.738;4.752;2022-07-17T01:42:25;2.75;;;2.22;;
66794;SDS011;53698;52.738;4.752;2022-07-17T01:44:52;7.70;;;2.85;;
66794;SDS011;53698;52.738;4.752;2022-07-17T01:47:18;5.82;;;2.53;;
66794;SDS011;53698;52.738;4.752;2022-07-17T01:49:44;6.75;;;2.85;;
66794;SDS011;53698;52.738;4.752;2022-07-17T01:52:14;5.72;;;2.58;;
66794;SDS011;53698;52.738;4.752;2022-07-17T01:54:39;7.40;;;2.85;;
66794;SDS011;53698;52.738;4.752;2022-07-17T01:57:06;9.50;;;2.90;;
66794;SDS011;53698;52.738;4.752;2022-07-17T01:59:31;6.90;;;3.45;;
66794;SDS011;53698;52.738;4.752;2022-07-17T02:01:57;6.40;;;2.75;;
66794;SDS011;53698;52.738;4.752;2022-07-17T02:04:22;7.35;;;3.15;;
66794;SDS011;53698;52.738;4.752;2022-07-17T02:06:47;4.38;;;2.50;;
66794;SDS011;53698;52.738;4.752;2022-07-17T02:09:13;6.60;;;3.08;;
66794;SDS011;53698;52.738;4.752;2022-07-17T02:11:38;10.73;;;2.88;;
66794;SDS011;53698;52.738;4.752;2022-07-17T02:14:03;6.32;;;3.10;;
66794;SDS011;53698;52.738;4.752;2022-07-17T02:16:29;9.02;;;3.58;;
66794;SDS011;53698;52.738;4.752;2022-07-17T02:18:54;4.40;;;3.13;;
66794;SDS011;53698;52.738;4.752;2022-07-17T02:21:21;8.90;;;3.15;;
66794;SDS011;53698;52.738;4.752;2022-07-17T02:23:47;6.88;;;3.08;;
66794;SDS011;53698;52.738;4.752;2022-07-17T02:26:12;4.82;;;2.90;;
66794;SDS011;53698;52.738;4.752;2022-07-17T02:28:37;4.40;;;2.45;;
66794;SDS011;53698;52.738;4.752;2022-07-17T02:31:03;5.35;;;2.97;;
66794;SDS011;53698;52.738;4.752;2022-07-17T02:33:28;7.25;;;3.20;;
66794;SDS011;53698;52.738;4.752;2022-07-17T02:35:53;8.50;;;3.15;;
66794;SDS011;53698;52.738;4.752;2022-07-17T02:38:19;7.80;;;3.08;;
66794;SDS011;53698;52.738;4.752;2022-07-17T02:40:44;5.95;;;3.35;;
66794;SDS011;53698;52.738;4.752;2022-07-17T02:43:10;7.30;;;3.22;;
66794;SDS011;53698;52.738;4.752;2022-07-17T02:45:35;10.32;;;3.42;;
66794;SDS011;53698;52.738;4.752;2022-07-17T02:48:01;10.10;;;4.00;;
66794;SDS011;53698;52.738;4.752;2022-07-17T02:50:26;8.27;;;3.63;;
66794;SDS011;53698;52.738;4.752;2022-07-17T02:52:52;7.80;;;3.50;;
66794;SDS011;53698;52.738;4.752;2022-07-17T02:55:17;5.53;;;3.67;;
66794;SDS011;53698;52.738;4.752;2022-07-17T02:57:43;6.50;;;3.85;;
66794;SDS011;53698;52.738;4.752;2022-07-17T03:00:12;6.30;;;3.92;;
66794;SDS011;53698;52.738;4.752;2022-07-17T03:02:40;8.40;;;4.10;;
66794;SDS011;53698;52.738;4.752;2022-07-17T03:05:06;6.75;;;3.80;;
66794;SDS011;53698;52.738;4.752;2022-07-17T03:07:32;11.55;;;4.22;;
66794;SDS011;53698;52.738;4.752;2022-07-17T03:09:58;9.48;;;4.53;;
66794;SDS011;53698;52.738;4.752;2022-07-17T03:12:23;13.13;;;4.32;;
66794;SDS011;53698;52.738;4.752;2022-07-17T03:14:49;9.45;;;4.18;;
66794;SDS011;53698;52.738;4.752;2022-07-17T03:17:14;6.90;;;3.70;;
66794;SDS011;53698;52.738;4.752;2022-07-17T03:19:39;7.80;;;3.35;;
66794;SDS011;53698;52.738;4.752;2022-07-17T03:22:05;7.30;;;3.72;;
66794;SDS011;53698;52.738;4.752;2022-07-17T03:24:30;9.45;;;3.75;;
66794;SDS011;53698;52.738;4.752;2022-07-17T03:26:56;8.93;;;4.13;;
66794;SDS011;53698;52.738;4.752;2022-07-17T03:29:22;8.32;;;4.18;;
66794;SDS011;53698;52.738;4.752;2022-07-17T03:31:47;7.50;;;3.95;;
66794;SDS011;53698;52.738;4.752;2022-07-17T03:34:13;7.90;;;3.90;;
66794;SDS011;53698;52.738;4.752;2022-07-17T03:36:39;7.60;;;3.65;;
66794;SDS011;53698;52.738;4.752;2022-07-17T03:39:05;6.90;;;3.70;;
66794;SDS011;53698;52.738;4.752;2022-07-17T03:41:31;10.18;;;4.28;;
66794;SDS011;53698;52.738;4.752;2022-07-17T03:43:56;7.43;;;3.97;;
66794;SDS011;53698;52.738;4.752;2022-07-17T03:46:22;6.97;;;3.80;;
66794;SDS011;53698;52.738;4.752;2022-07-17T03:48:47;10.00;;;4.10;;
66794;SDS011;53698;52.738;4.752;2022-07-17T03:51:13;6.05;;;3.83;;
66794;SDS011;53698;52.738;4.752;2022-07-17T03:53:38;9.20;;;4.60;;
66794;SDS011;53698;52.738;4.752;2022-07-17T03:56:04;7.22;;;4.35;;
66794;SDS011;53698;52.738;4.752;2022-07-17T03:58:30;8.65;;;4.45;;
66794;SDS011;53698;52.738;4.752;2022-07-17T04:00:56;6.95;;;3.60;;
66794;SDS011;53698;52.738;4.752;2022-07-17T04:03:21;8.98;;;4.05;;
66794;SDS011;53698;52.738;4.752;2022-07-17T04:05:46;8.85;;;4.47;;
66794;SDS011;53698;52.738;4.752;2022-07-17T04:08:12;7.95;;;4.15;;
66794;SDS011;53698;52.738;4.752;2022-07-17T04:10:40;7.00;;;4.53;;
66794;SDS011;53698;52.738;4.752;2022-07-17T04:13:06;9.57;;;4.50;;
66794;SDS011;53698;52.738;4.752;2022-07-17T04:15:31;7.97;;;4.63;;
66794;SDS011;53698;52.738;4.752;2022-07-17T04:18:17;9.70;;;4.88;;
66794;SDS011;53698;52.738;4.752;2022-07-17T04:20:46;9.48;;;4.13;;
66794;SDS011;53698;52.738;4.752;2022-07-17T04:23:12;8.32;;;4.15;;
66794;SDS011;53698;52.738;4.752;2022-07-17T04:25:38;8.13;;;4.78;;
66794;SDS011;53698;52.738;4.752;2022-07-17T04:28:04;14.38;;;4.32;;
66794;SDS011;53698;52.738;4.752;2022-07-17T04:30:29;11.63;;;4.95;;
66794;SDS011;53698;52.738;4.752;2022-07-17T04:32:55;10.35;;;5.50;;
66794;SDS011;53698;52.738;4.752;2022-07-17T04:35:20;9.77;;;6.07;;
66794;SDS011;53698;52.738;4.752;2022-07-17T04:37:45;16.83;;;5.68;;
66794;SDS011;53698;52.738;4.752;2022-07-17T04:40:11;8.45;;;4.68;;
66794;SDS011;53698;52.738;4.752;2022-07-17T04:42:37;15.13;;;5.30;;
66794;SDS011;53698;52.738;4.752;2022-07-17T04:45:02;14.27;;;4.93;;
66794;SDS011;53698;52.738;4.752;2022-07-17T04:47:28;10.05;;;4.70;;
66794;SDS011;53698;52.738;4.752;2022-07-17T04:49:54;8.82;;;4.95;;
66794;SDS011;53698;52.738;4.752;2022-07-17T04:52:19;8.95;;;5.18;;
66794;SDS011;53698;52.738;4.752;2022-07-17T04:54:44;13.82;;;5.35;;
66794;SDS011;53698;52.738;4.752;2022-07-17T04:57:10;9.48;;;4.40;;
66794;SDS011;53698;52.738;4.752;2022-07-17T04:59:36;6.60;;;4.13;;
66794;SDS011;53698;52.738;4.752;2022-07-17T05:02:02;11.60;;;4.85;;
66794;SDS011;53698;52.738;4.752;2022-07-17T05:04:28;10.82;;;3.78;;
66794;SDS011;53698;52.738;4.752;2022-07-17T05:06:54;7.90;;;3.67;;
66794;SDS011;53698;52.738;4.752;2022-07-17T05:09:19;9.15;;;3.80;;
66794;SDS011;53698;52.738;4.752;2022-07-17T05:11:44;12.95;;;4.80;;
66794;SDS011;53698;52.738;4.752;2022-07-17T05:14:10;13.40;;;4.40;;
66794;SDS011;53698;52.738;4.752;2022-07-17T05:16:35;8.82;;;3.90;;
66794;SDS011;53698;52.738;4.752;2022-07-17T05:19:00;11.57;;;4.30;;
66794;SDS011;53698;52.738;4.752;2022-07-17T05:21:26;10.90;;;4.95;;
66794;SDS011;53698;52.738;4.752;2022-07-17T05:23:51;8.65;;;4.60;;
66794;SDS011;53698;52.738;4.752;2022-07-17T05:26:17;9.88;;;4.95;;
66794;SDS011;53698;52.738;4.752;2022-07-17T05:28:42;10.70;;;6.65;;
66794;SDS011;53698;52.738;4.752;2022-07-17T05:31:08;11.90;;;6.90;;
66794;SDS011;53698;52.738;4.752;2022-07-17T05:33:33;13.23;;;6.75;;
66794;SDS011;53698;52.738;4.752;2022-07-17T05:35:58;14.38;;;6.07;;
66794;SDS011;53698;52.738;4.752;2022-07-17T05:38:24;11.02;;;5.47;;
66794;SDS011;53698;52.738;4.752;2022-07-17T05:40:49;11.25;;;5.68;;
66794;SDS011;53698;52.738;4.752;2022-07-17T05:43:14;11.85;;;5.75;;
66794;SDS011;53698;52.738;4.752;2022-07-17T05:45:40;13.23;;;5.43;;
66794;SDS011;53698;52.738;4.752;2022-07-17T05:48:06;8.75;;;5.32;;
66794;SDS011;53698;52.738;4.752;2022-07-17T05:50:32;17.23;;;5.90;;
66794;SDS011;53698;52.738;4.752;2022-07-17T05:52:58;14.57;;;4.32;;
66794;SDS011;53698;52.738;4.752;2022-07-17T05:55:24;7.57;;;3.80;;
66794;SDS011;53698;52.738;4.752;2022-07-17T05:57:50;7.00;;;3.92;;
66794;SDS011;53698;52.738;4.752;2022-07-17T06:00:15;9.00;;;3.58;;
66794;SDS011;53698;52.738;4.752;2022-07-17T06:02:41;10.23;;;3.90;;
66794;SDS011;53698;52.738;4.752;2022-07-17T06:05:06;6.55;;;2.67;;
66794;SDS011;53698;52.738;4.752;2022-07-17T06:07:32;9.90;;;3.30;;
66794;SDS011;53698;52.738;4.752;2022-07-17T06:09:58;6.53;;;2.25;;
66794;SDS011;53698;52.738;4.752;2022-07-17T06:12:23;7.88;;;2.17;;
66794;SDS011;53698;52.738;4.752;2022-07-17T06:14:49;5.15;;;2.08;;
66794;SDS011;53698;52.738;4.752;2022-07-17T06:17:14;11.93;;;2.60;;
66794;SDS011;53698;52.738;4.752;2022-07-17T06:19:40;5.75;;;2.20;;
66794;SDS011;53698;52.738;4.752;2022-07-17T06:22:06;7.30;;;2.53;;
66794;SDS011;53698;52.738;4.752;2022-07-17T06:24:31;6.47;;;1.85;;
66794;SDS011;53698;52.738;4.752;2022-07-17T06:26:57;5.70;;;1.92;;
66794;SDS011;53698;52.738;4.752;2022-07-17T06:29:22;5.82;;;2.70;;
66794;SDS011;53698;52.738;4.752;2022-07-17T06:31:47;7.68;;;2.25;;
66794;SDS011;53698;52.738;4.752;2022-07-17T06:34:13;5.07;;;2.00;;
66794;SDS011;53698;52.738;4.752;2022-07-17T06:36:38;6.40;;;1.80;;
66794;SDS011;53698;52.738;4.752;2022-07-17T06:39:03;6.10;;;1.63;;
66794;SDS011;53698;52.738;4.752;2022-07-17T06:41:29;5.30;;;1.70;;
66794;SDS011;53698;52.738;4.752;2022-07-17T06:43:54;6.45;;;1.80;;
66794;SDS011;53698;52.738;4.752;2022-07-17T06:46:19;7.43;;;2.05;;
66794;SDS011;53698;52.738;4.752;2022-07-17T06:48:45;7.63;;;1.50;;
66794;SDS011;53698;52.738;4.752;2022-07-17T06:51:10;6.13;;;1.15;;
66794;SDS011;53698;52.738;4.752;2022-07-17T06:53:35;3.72;;;1.40;;
66794;SDS011;53698;52.738;4.752;2022-07-17T06:56:01;5.35;;;1.27;;
66794;SDS011;53698;52.738;4.752;2022-07-17T06:58:26;6.45;;;1.40;;
66794;SDS011;53698;52.738;4.752;2022-07-17T07:00:51;4.47;;;1.45;;
66794;SDS011;53698;52.738;4.752;2022-07-17T07:03:17;4.88;;;1.40;;
66794;SDS011;53698;52.738;4.752;2022-07-17T07:05:42;8.23;;;1.35;;
66794;SDS011;53698;52.738;4.752;2022-07-17T07:08:07;5.88;;;1.35;;
66794;SDS011;53698;52.738;4.752;2022-07-17T07:10:33;6.55;;;1.48;;
66794;SDS011;53698;52.738;4.752;2022-07-17T07:12:58;6.05;;;1.38;;
66794;SDS011;53698;52.738;4.752;2022-07-17T07:15:23;4.75;;;1.23;;
66794;SDS011;53698;52.738;4.752;2022-07-17T07:17:49;9.93;;;1.35;;
66794;SDS011;53698;52.738;4.752;2022-07-17T07:20:14;6.75;;;1.38;;
66794;SDS011;53698;52.738;4.752;2022-07-17T07:22:40;5.47;;;1.42;;
66794;SDS011;53698;52.738;4.752;2022-07-17T07:25:06;3.38;;;1.17;;
66794;SDS011;53698;52.738;4.752;2022-07-17T07:27:32;3.05;;;1.13;;
66794;SDS011;53698;52.738;4.752;2022-07-17T07:29:57;2.70;;;0.85;;
66794;SDS011;53698;52.738;4.752;2022-07-17T07:32:22;3.53;;;1.15;;
66794;SDS011;53698;52.738;4.752;2022-07-17T07:34:48;5.40;;;1.45;;
66794;SDS011;53698;52.738;4.752;2022-07-17T07:37:13;6.82;;;1.40;;
66794;SDS011;53698;52.738;4.752;2022-07-17T07:39:38;4.25;;;1.35;;
66794;SDS011;53698;52.738;4.752;2022-07-17T07:42:04;10.80;;;1.98;;
66794;SDS011;53698;52.738;4.752;2022-07-17T07:44:30;4.07;;;1.55;;
66794;SDS011;53698;52.738;4.752;2022-07-17T07:46:55;6.43;;;1.85;;
66794;SDS011;53698;52.738;4.752;2022-07-17T07:49:21;3.58;;;1.10;;
66794;SDS011;53698;52.738;4.752;2022-07-17T07:51:46;3.42;;;1.58;;
66794;SDS011;53698;52.738;4.752;2022-07-17T07:54:11;4.78;;;1.48;;
66794;SDS011;53698;52.738;4.752;2022-07-17T07:56:37;3.40;;;1.40;;
66794;SDS011;53698;52.738;4.752;2022-07-17T07:59:03;6.75;;;1.60;;
66794;SDS011;53698;52.738;4.752;2022-07-17T08:01:28;7.82;;;1.58;;
66794;SDS011;53698;52.738;4.752;2022-07-17T08:03:54;5.63;;;1.50;;
66794;SDS011;53698;52.738;4.752;2022-07-17T08:06:19;8.02;;;1.77;;
66794;SDS011;53698;52.738;4.752;2022-07-17T08:08:45;5.20;;;1.67;;
66794;SDS011;53698;52.738;4.752;2022-07-17T08:11:10;7.25;;;1.73;;
66794;SDS011;53698;52.738;4.752;2022-07-17T08:13:36;3.40;;;1.42;;
66794;SDS011;53698;52.738;4.752;2022-07-17T08:16:01;6.60;;;1.40;;
66794;SDS011;53698;52.738;4.752;2022-07-17T08:18:27;4.72;;;1.60;;
66794;SDS011;53698;52.738;4.752;2022-07-17T08:20:53;6.47;;;1.70;;
66794;SDS011;53698;52.738;4.752;2022-07-17T08:23:19;6.55;;;1.48;;
66794;SDS011;53698;52.738;4.752;2022-07-17T08:25:44;6.10;;;1.50;;
66794;SDS011;53698;52.738;4.752;2022-07-17T08:28:12;9.70;;;1.88;;
66794;SDS011;53698;52.738;4.752;2022-07-17T08:30:38;7.43;;;2.53;;
66794;SDS011;53698;52.738;4.752;2022-07-17T08:33:03;5.32;;;2.30;;
66794;SDS011;53698;52.738;4.752;2022-07-17T08:35:30;5.95;;;1.98;;
66794;SDS011;53698;52.738;4.752;2022-07-17T08:37:55;3.83;;;1.83;;
66794;SDS011;53698;52.738;4.752;2022-07-17T08:40:22;6.43;;;1.42;;
66794;SDS011;53698;52.738;4.752;2022-07-17T08:42:50;6.53;;;1.70;;
66794;SDS011;53698;52.738;4.752;2022-07-17T08:45:16;4.30;;;1.98;;
66794;SDS011;53698;52.738;4.752;2022-07-17T08:47:41;7.82;;;1.70;;
66794;SDS011;53698;52.738;4.752;2022-07-17T08:50:10;4.22;;;1.58;;
66794;SDS011;53698;52.738;4.752;2022-07-17T08:52:37;4.45;;;1.70;;
66794;SDS011;53698;52.738;4.752;2022-07-17T08:55:04;4.72;;;1.70;;
66794;SDS011;53698;52.738;4.752;2022-07-17T08:57:35;4.72;;;1.75;;
66794;SDS011;53698;52.738;4.752;2022-07-17T09:00:02;4.82;;;1.73;;
66794;SDS011;53698;52.738;4.752;2022-07-17T09:02:28;7.82;;;2.17;;
66794;SDS011;53698;52.738;4.752;2022-07-17T09:04:54;4.22;;;1.70;;
66794;SDS011;53698;52.738;4.752;2022-07-17T09:07:19;4.55;;;1.70;;
66794;SDS011;53698;52.738;4.752;2022-07-17T09:09:51;5.35;;;2.38;;
66794;SDS011;53698;52.738;4.752;2022-07-17T09:12:17;5.97;;;1.80;;
66794;SDS011;53698;52.738;4.752;2022-07-17T09:14:49;6.65;;;2.33;;
66794;SDS011;53698;52.738;4.752;2022-07-17T09:17:15;6.18;;;1.85;;
66794;SDS011;53698;52.738;4.752;2022-07-17T09:19:41;5.15;;;2.03;;
66794;SDS011;53698;52.738;4.752;2022-07-17T09:22:17;3.83;;;1.88;;
66794;SDS011;53698;52.738;4.752;2022-07-17T09:32:35;5.22;;;1.73;;
66794;SDS011;53698;52.738;4.752;2022-07-17T09:35:03;5.80;;;1.75;;
66794;SDS011;53698;52.738;4.752;2022-07-17T09:37:30;4.43;;;1.77;;
66794;SDS011;53698;52.738;4.752;2022-07-17T09:39:57;8.30;;;2.30;;
66794;SDS011;53698;52.738;4.752;2022-07-17T09:42:24;4.78;;;1.73;;
66794;SDS011;53698;52.738;4.752;2022-07-17T09:45:01;4.20;;;1.60;;
66794;SDS011;53698;52.738;4.752;2022-07-17T09:47:29;3.80;;;1.40;;
66794;SDS011;53698;52.738;4.752;2022-07-17T09:49:56;5.40;;;1.73;;
66794;SDS011;53698;52.738;4.752;2022-07-17T09:52:24;2.65;;;1.52;;
66794;SDS011;53698;52.738;4.752;2022-07-17T09:54:52;3.50;;;1.40;;
66794;SDS011;53698;52.738;4.752;2022-07-17T09:57:20;3.92;;;1.60;;
66794;SDS011;53698;52.738;4.752;2022-07-17T09:59:49;3.28;;;1.38;;
66794;SDS011;53698;52.738;4.752;2022-07-17T10:02:15;5.57;;;1.70;;
66794;SDS011;53698;52.738;4.752;2022-07-17T10:04:41;6.43;;;1.60;;
66794;SDS011;53698;52.738;4.752;2022-07-17T10:07:07;5.82;;;1.75;;
66794;SDS011;53698;52.738;4.752;2022-07-17T10:09:34;4.63;;;1.88;;
66794;SDS011;53698;52.738;4.752;2022-07-17T10:12:00;3.83;;;1.65;;
66794;SDS011;53698;52.738;4.752;2022-07-17T10:14:26;2.55;;;1.30;;
66794;SDS011;53698;52.738;4.752;2022-07-17T10:16:52;7.32;;;2.22;;
66794;SDS011;53698;52.738;4.752;2022-07-17T10:19:18;4.75;;;2.17;;
66794;SDS011;53698;52.738;4.752;2022-07-17T10:22:18;5.45;;;2.00;;
66794;SDS011;53698;52.738;4.752;2022-07-17T10:24:44;5.03;;;2.20;;
66794;SDS011;53698;52.738;4.752;2022-07-17T10:27:30;3.38;;;2.47;;
66794;SDS011;53698;52.738;4.752;2022-07-17T10:32:29;4.28;;;2.08;;
66794;SDS011;53698;52.738;4.752;2022-07-17T10:34:59;5.35;;;2.22;;
66794;SDS011;53698;52.738;4.752;2022-07-17T10:40:03;4.15;;;2.30;;
66794;SDS011;53698;52.738;4.752;2022-07-17T10:45:29;6.40;;;2.17;;
66794;SDS011;53698;52.738;4.752;2022-07-17T10:48:11;5.00;;;2.03;;
66794;SDS011;53698;52.738;4.752;2022-07-17T10:50:50;5.10;;;2.30;;
66794;SDS011;53698;52.738;4.752;2022-07-17T10:53:18;4.32;;;2.45;;
66794;SDS011;53698;52.738;4.752;2022-07-17T10:55:53;6.50;;;2.35;;
66794;SDS011;53698;52.738;4.752;2022-07-17T10:58:28;3.97;;;2.40;;
66794;SDS011;53698;52.738;4.752;2022-07-17T11:03:47;3.50;;;2.05;;
66794;SDS011;53698;52.738;4.752;2022-07-17T11:06:26;3.92;;;2.10;;
66794;SDS011;53698;52.738;4.752;2022-07-17T11:09:11;7.35;;;1.80;;
66794;SDS011;53698;52.738;4.752;2022-07-17T11:14:07;5.65;;;1.70;;
66794;SDS011;53698;52.738;4.752;2022-07-17T11:16:39;11.90;;;1.80;;
66794;SDS011;53698;52.738;4.752;2022-07-17T11:19:10;3.88;;;1.33;;
66794;SDS011;53698;52.738;4.752;2022-07-17T11:21:48;6.55;;;2.08;;
66794;SDS011;53698;52.738;4.752;2022-07-17T11:24:14;5.57;;;1.55;;
66794;SDS011;53698;52.738;4.752;2022-07-17T11:26:41;4.00;;;1.00;;
66794;SDS011;53698;52.738;4.752;2022-07-17T11:29:08;2.22;;;1.20;;
66794;SDS011;53698;52.738;4.752;2022-07-17T11:31:33;3.92;;;1.60;;
66794;SDS011;53698;52.738;4.752;2022-07-17T11:34:04;6.60;;;1.30;;
66794;SDS011;53698;52.738;4.752;2022-07-17T11:39:02;5.05;;;1.42;;
66794;SDS011;53698;52.738;4.752;2022-07-17T11:41:40;5.25;;;1.60;;
66794;SDS011;53698;52.738;4.752;2022-07-17T11:44:08;5.47;;;1.60;;
66794;SDS011;53698;52.738;4.752;2022-07-17T11:46:36;6.20;;;1.48;;
66794;SDS011;53698;52.738;4.752;2022-07-17T11:49:03;3.40;;;1.42;;
66794;SDS011;53698;52.738;4.752;2022-07-17T11:51:47;4.03;;;1.52;;
66794;SDS011;53698;52.738;4.752;2022-07-17T11:54:13;4.85;;;1.45;;
66794;SDS011;53698;52.738;4.752;2022-07-17T11:56:41;2.95;;;1.35;;
66794;SDS011;53698;52.738;4.752;2022-07-17T11:59:08;3.65;;;1.38;;
66794;SDS011;53698;52.738;4.752;2022-07-17T12:01:39;5.10;;;1.30;;
66794;SDS011;53698;52.738;4.752;2022-07-17T12:04:09;5.07;;;1.35;;
66794;SDS011;53698;52.738;4.752;2022-07-17T12:06:39;3.15;;;1.20;;
66794;SDS011;53698;52.738;4.752;2022-07-17T12:09:04;3.80;;;1.00;;
66794;SDS011;53698;52.738;4.752;2022-07-17T12:11:30;4.68;;;1.42;;
66794;SDS011;53698;52.738;4.752;2022-07-17T12:14:02;3.67;;;1.30;;
66794;SDS011;53698;52.738;4.752;2022-07-17T12:16:34;4.30;;;1.20;;
66794;SDS011;53698;52.738;4.752;2022-07-17T12:19:03;3.75;;;1.55;;
66794;SDS011;53698;52.738;4.752;2022-07-17T12:21:32;4.70;;;1.40;;
66794;SDS011;53698;52.738;4.752;2022-07-17T12:24:04;3.05;;;1.17;;
66794;SDS011;53698;52.738;4.752;2022-07-17T12:26:31;4.18;;;1.67;;
66794;SDS011;53698;52.738;4.752;2022-07-17T12:28:57;11.23;;;1.95;;
66794;SDS011;53698;52.738;4.752;2022-07-17T12:31:24;2.33;;;1.13;;
66794;SDS011;53698;52.738;4.752;2022-07-17T12:33:50;8.52;;;1.73;;
66794;SDS011;53698;52.738;4.752;2022-07-17T12:36:17;4.55;;;1.40;;
66794;SDS011;53698;52.738;4.752;2022-07-17T12:38:43;3.33;;;1.23;;
66794;SDS011;53698;52.738;4.752;2022-07-17T12:41:08;4.28;;;1.75;;
66794;SDS011;53698;52.738;4.752;2022-07-17T12:43:34;4.85;;;1.48;;
66794;SDS011;53698;52.738;4.752;2022-07-17T12:46:00;5.80;;;1.40;;
66794;SDS011;53698;52.738;4.752;2022-07-17T12:48:25;2.35;;;1.05;;
66794;SDS011;53698;52.738;4.752;2022-07-17T12:50:50;4.53;;;1.80;;
66794;SDS011;53698;52.738;4.752;2022-07-17T12:53:16;2.40;;;1.20;;
66794;SDS011;53698;52.738;4.752;2022-07-17T12:55:41;3.50;;;1.10;;
66794;SDS011;53698;52.738;4.752;2022-07-17T12:58:06;3.47;;;1.33;;
66794;SDS011;53698;52.738;4.752;2022-07-17T13:00:32;7.38;;;1.42;;
66794;SDS011;53698;52.738;4.752;2022-07-17T13:02:57;5.00;;;1.27;;
66794;SDS011;53698;52.738;4.752;2022-07-17T13:05:23;3.13;;;1.23;;
66794;SDS011;53698;52.738;4.752;2022-07-17T13:07:49;3.70;;;1.13;;
66794;SDS011;53698;52.738;4.752;2022-07-17T13:10:15;4.10;;;1.10;;
66794;SDS011;53698;52.738;4.752;2022-07-17T13:12:41;3.60;;;1.23;;
66794;SDS011;53698;52.738;4.752;2022-07-17T13:15:06;3.67;;;1.10;;
66794;SDS011;53698;52.738;4.752;2022-07-17T13:17:32;4.43;;;1.30;;
66794;SDS011;53698;52.738;4.752;2022-07-17T13:19:57;2.10;;;0.90;;
66794;SDS011;53698;52.738;4.752;2022-07-17T13:22:23;5.20;;;1.20;;
66794;SDS011;53698;52.738;4.752;2022-07-17T13:24:48;2.72;;;1.02;;
66794;SDS011;53698;52.738;4.752;2022-07-17T13:27:13;3.42;;;1.42;;
66794;SDS011;53698;52.738;4.752;2022-07-17T13:29:39;3.85;;;1.20;;
66794;SDS011;53698;52.738;4.752;2022-07-17T13:32:04;4.30;;;1.48;;
66794;SDS011;53698;52.738;4.752;2022-07-17T13:34:30;2.88;;;1.08;;
66794;SDS011;53698;52.738;4.752;2022-07-17T13:36:55;3.10;;;1.20;;
66794;SDS011;53698;52.738;4.752;2022-07-17T13:39:21;2.30;;;1.40;;
66794;SDS011;53698;52.738;4.752;2022-07-17T13:41:46;1.88;;;1.02;;
66794;SDS011;53698;52.738;4.752;2022-07-17T13:44:11;7.10;;;1.42;;
66794;SDS011;53698;52.738;4.752;2022-07-17T13:46:38;2.78;;;1.15;;
66794;SDS011;53698;52.738;4.752;2022-07-17T13:49:03;5.35;;;0.90;;
66794;SDS011;53698;52.738;4.752;2022-07-17T13:51:29;2.38;;;1.10;;
66794;SDS011;53698;52.738;4.752;2022-07-17T13:53:56;1.85;;;1.00;;
66794;SDS011;53698;52.738;4.752;2022-07-17T13:56:24;5.57;;;1.10;;
66794;SDS011;53698;52.738;4.752;2022-07-17T13:58:50;2.63;;;0.90;;
66794;SDS011;53698;52.738;4.752;2022-07-17T14:01:15;2.85;;;1.15;;
66794;SDS011;53698;52.738;4.752;2022-07-17T14:03:40;2.97;;;1.33;;
66794;SDS011;53698;52.738;4.752;2022-07-17T14:06:06;1.90;;;1.00;;
66794;SDS011;53698;52.738;4.752;2022-07-17T14:08:33;1.67;;;0.98;;
66794;SDS011;53698;52.738;4.752;2022-07-17T14:10:59;5.05;;;1.02;;
66794;SDS011;53698;52.738;4.752;2022-07-17T14:13:25;1.52;;;0.68;;
66794;SDS011;53698;52.738;4.752;2022-07-17T14:15:50;4.53;;;1.15;;
66794;SDS011;53698;52.738;4.752;2022-07-17T14:18:16;3.33;;;1.00;;
66794;SDS011;53698;52.738;4.752;2022-07-17T14:20:41;3.13;;;0.90;;
66794;SDS011;53698;52.738;4.752;2022-07-17T14:23:07;1.30;;;0.90;;
66794;SDS011;53698;52.738;4.752;2022-07-17T14:25:32;3.70;;;0.80;;
66794;SDS011;53698;52.738;4.752;2022-07-17T14:27:57;4.30;;;1.10;;
66794;SDS011;53698;52.738;4.752;2022-07-17T14:30:24;3.63;;;1.10;;
66794;SDS011;53698;52.738;4.752;2022-07-17T14:32:50;2.95;;;1.00;;
66794;SDS011;53698;52.738;4.752;2022-07-17T14:35:15;2.97;;;1.15;;
66794;SDS011;53698;52.738;4.752;2022-07-17T14:37:40;1.75;;;1.20;;
66794;SDS011;53698;52.738;4.752;2022-07-17T14:40:06;2.75;;;1.10;;
66794;SDS011;53698;52.738;4.752;2022-07-17T14:42:32;1.92;;;0.85;;
66794;SDS011;53698;52.738;4.752;2022-07-17T14:44:59;1.92;;;1.15;;
66794;SDS011;53698;52.738;4.752;2022-07-17T14:47:25;2.03;;;1.10;;
66794;SDS011;53698;52.738;4.752;2022-07-17T14:49:51;1.92;;;1.10;;
66794;SDS011;53698;52.738;4.752;2022-07-17T14:52:16;3.08;;;1.30;;
66794;SDS011;53698;52.738;4.752;2022-07-17T14:54:42;3.90;;;1.10;;
66794;SDS011;53698;52.738;4.752;2022-07-17T14:57:07;2.38;;;1.23;;
66794;SDS011;53698;52.738;4.752;2022-07-17T14:59:33;2.78;;;1.30;;
66794;SDS011;53698;52.738;4.752;2022-07-17T15:01:58;1.45;;;1.25;;
66794;SDS011;53698;52.738;4.752;2022-07-17T15:04:24;2.08;;;0.90;;
66794;SDS011;53698;52.738;4.752;2022-07-17T15:06:49;5.00;;;1.30;;